sensor_id;sensor_type;location;lat;lon;timestamp;pressure;altitude;pressure_sealevel;temperature;humidity
29815;BME280;16708;50.426;7.664;2022-07-18T00:01:36;995.65;;;16.42;72.08
29815;BME280;16708;50.426;7.664;2022-07-18T00:06:31;995.66;;;16.38;73.17
29815;BME280;16708;50.426;7.664;2022-07-18T00:11:25;995.70;;;15.95;75.12
29815;BME280;16708;50.426;7.664;2022-07-18T00:16:20;995.64;;;15.85;76.05
29815;BME280;16708;50.426;7.664;2022-07-18T00:21:14;995.63;;;15.91;76.01
29815;BME280;16708;50.426;7.664;2022-07-18T00:26:09;995.67;;;15.71;77.06
29815;BME280;16708;50.426;7.664;2022-07-18T00:31:03;995.56;;;15.52;78.80
29815;BME280;16708;50.426;7.664;2022-07-18T00:35:58;995.53;;;15.84;74.60
29815;BME280;16708;50.426;7.664;2022-07-18T00:40:52;995.54;;;15.76;76.72
29815;BME280;16708;50.426;7.664;2022-07-18T00:45:47;995.53;;;15.96;74.30
29815;BME280;16708;50.426;7.664;2022-07-18T00:50:41;995.51;;;16.02;75.18
29815;BME280;16708;50.426;7.664;2022-07-18T00:55:35;995.54;;;16.11;71.55
29815;BME280;16708;50.426;7.664;2022-07-18T01:00:30;995.51;;;16.16;73.00
29815;BME280;16708;50.426;7.664;2022-07-18T01:05:24;995.50;;;16.34;67.00
29815;BME280;16708;50.426;7.664;2022-07-18T01:10:19;995.48;;;16.67;64.52
29815;BME280;16708;50.426;7.664;2022-07-18T01:15:13;995.47;;;16.49;69.31
29815;BME280;16708;50.426;7.664;2022-07-18T01:20:07;995.44;;;16.20;70.18
29815;BME280;16708;50.426;7.664;2022-07-18T01:25:01;995.42;;;16.28;67.10
29815;BME280;16708;50.426;7.664;2022-07-18T01:29:55;995.57;;;16.22;69.84
29815;BME280;16708;50.426;7.664;2022-07-18T01:34:47;995.50;;;16.22;69.84
29815;BME280;16708;50.426;7.664;2022-07-18T01:39:42;995.56;;;16.04;68.16
29815;BME280;16708;50.426;7.664;2022-07-18T01:44:36;995.45;;;16.01;67.01
29815;BME280;16708;50.426;7.664;2022-07-18T01:49:31;995.39;;;15.77;70.44
29815;BME280;16708;50.426;7.664;2022-07-18T01:54:25;995.37;;;15.56;71.63
29815;BME280;16708;50.426;7.664;2022-07-18T01:59:19;995.34;;;15.32;73.51
29815;BME280;16708;50.426;7.664;2022-07-18T02:04:14;995.28;;;15.30;74.01
29815;BME280;16708;50.426;7.664;2022-07-18T02:09:08;995.33;;;15.30;75.14
29815;BME280;16708;50.426;7.664;2022-07-18T02:14:01;995.28;;;15.27;74.60
29815;BME280;16708;50.426;7.664;2022-07-18T02:18:55;995.33;;;15.35;74.00
29815;BME280;16708;50.426;7.664;2022-07-18T02:23:50;995.23;;;15.37;74.94
29815;BME280;16708;50.426;7.664;2022-07-18T02:28:44;995.24;;;15.12;76.67
29815;BME280;16708;50.426;7.664;2022-07-18T02:33:38;995.29;;;14.83;78.86
29815;BME280;16708;50.426;7.664;2022-07-18T02:38:33;995.31;;;14.86;79.18
29815;BME280;16708;50.426;7.664;2022-07-18T02:43:27;995.28;;;14.75;79.97
29815;BME280;16708;50.426;7.664;2022-07-18T02:48:21;995.24;;;14.63;80.76
29815;BME280;16708;50.426;7.664;2022-07-18T02:53:16;995.32;;;14.55;81.86
29815;BME280;16708;50.426;7.664;2022-07-18T02:58:10;995.33;;;14.55;81.46
29815;BME280;16708;50.426;7.664;2022-07-18T03:03:05;995.32;;;14.53;81.79
29815;BME280;16708;50.426;7.664;2022-07-18T03:07:59;995.34;;;14.54;82.28
29815;BME280;16708;50.426;7.664;2022-07-18T03:12:53;995.34;;;14.44;82.69
29815;BME280;16708;50.426;7.664;2022-07-18T03:17:49;995.27;;;14.41;83.06
29815;BME280;16708;50.426;7.664;2022-07-18T03:22:43;995.34;;;14.37;83.51
29815;BME280;16708;50.426;7.664;2022-07-18T03:27:37;995.25;;;14.29;84.07
29815;BME280;16708;50.426;7.664;2022-07-18T03:32:32;995.26;;;14.28;83.82
29815;BME280;16708;50.426;7.664;2022-07-18T03:37:26;995.30;;;14.17;84.88
29815;BME280;16708;50.426;7.664;2022-07-18T03:42:21;995.31;;;14.13;85.96
29815;BME280;16708;50.426;7.664;2022-07-18T03:47:16;995.32;;;14.15;85.72
29815;BME280;16708;50.426;7.664;2022-07-18T03:52:10;995.27;;;14.14;86.67
29815;BME280;16708;50.426;7.664;2022-07-18T03:57:05;995.34;;;14.20;86.09
29815;BME280;16708;50.426;7.664;2022-07-18T04:02:00;995.35;;;14.19;85.70
29815;BME280;16708;50.426;7.664;2022-07-18T04:06:54;995.33;;;14.26;86.01
29815;BME280;16708;50.426;7.664;2022-07-18T04:11:48;995.45;;;14.28;86.47
29815;BME280;16708;50.426;7.664;2022-07-18T04:16:42;995.46;;;14.39;85.35
29815;BME280;16708;50.426;7.664;2022-07-18T04:21:37;995.52;;;14.44;85.13
29815;BME280;16708;50.426;7.664;2022-07-18T04:26:31;995.52;;;14.53;85.94
29815;BME280;16708;50.426;7.664;2022-07-18T04:31:26;995.48;;;14.56;86.40
29815;BME280;16708;50.426;7.664;2022-07-18T04:36:20;995.48;;;14.81;84.79
29815;BME280;16708;50.426;7.664;2022-07-18T04:41:15;995.45;;;15.01;84.37
29815;BME280;16708;50.426;7.664;2022-07-18T04:46:09;995.45;;;15.06;85.43
29815;BME280;16708;50.426;7.664;2022-07-18T04:51:04;995.44;;;15.28;83.19
29815;BME280;16708;50.426;7.664;2022-07-18T04:55:58;995.40;;;15.38;83.96
29815;BME280;16708;50.426;7.664;2022-07-18T05:00:52;995.41;;;15.54;84.03
29815;BME280;16708;50.426;7.664;2022-07-18T05:05:49;995.38;;;15.84;82.76
29815;BME280;16708;50.426;7.664;2022-07-18T05:10:42;995.31;;;16.16;82.62
29815;BME280;16708;50.426;7.664;2022-07-18T05:15:37;995.40;;;16.41;81.89
29815;BME280;16708;50.426;7.664;2022-07-18T05:20:32;995.41;;;16.72;77.07
29815;BME280;16708;50.426;7.664;2022-07-18T05:25:26;995.45;;;16.79;79.19
29815;BME280;16708;50.426;7.664;2022-07-18T05:30:21;995.41;;;16.86;78.09
29815;BME280;16708;50.426;7.664;2022-07-18T05:35:16;995.37;;;16.92;77.85
29815;BME280;16708;50.426;7.664;2022-07-18T05:40:11;995.41;;;17.29;72.38
29815;BME280;16708;50.426;7.664;2022-07-18T05:45:05;995.39;;;17.52;68.83
29815;BME280;16708;50.426;7.664;2022-07-18T05:50:00;995.35;;;17.96;69.32
29815;BME280;16708;50.426;7.664;2022-07-18T05:54:54;995.44;;;18.01;63.55
29815;BME280;16708;50.426;7.664;2022-07-18T05:59:49;995.50;;;18.16;65.51
29815;BME280;16708;50.426;7.664;2022-07-18T06:04:44;995.47;;;18.09;60.47
29815;BME280;16708;50.426;7.664;2022-07-18T06:09:38;995.40;;;18.12;58.88
29815;BME280;16708;50.426;7.664;2022-07-18T06:14:33;995.35;;;18.63;57.36
29815;BME280;16708;50.426;7.664;2022-07-18T06:19:28;995.34;;;18.78;59.40
29815;BME280;16708;50.426;7.664;2022-07-18T06:24:22;995.42;;;19.01;57.61
29815;BME280;16708;50.426;7.664;2022-07-18T06:29:17;995.34;;;19.17;58.64
29815;BME280;16708;50.426;7.664;2022-07-18T06:34:12;995.30;;;19.63;56.71
29815;BME280;16708;50.426;7.664;2022-07-18T06:39:06;995.17;;;19.82;56.42
29815;BME280;16708;50.426;7.664;2022-07-18T06:44:00;995.21;;;20.02;55.73
29815;BME280;16708;50.426;7.664;2022-07-18T06:48:53;995.17;;;20.35;57.07
29815;BME280;16708;50.426;7.664;2022-07-18T06:53:47;995.17;;;20.49;56.65
29815;BME280;16708;50.426;7.664;2022-07-18T06:58:42;995.18;;;20.49;58.80
29815;BME280;16708;50.426;7.664;2022-07-18T07:03:37;995.13;;;20.81;54.09
29815;BME280;16708;50.426;7.664;2022-07-18T07:08:31;995.23;;;20.98;52.48
29815;BME280;16708;50.426;7.664;2022-07-18T07:13:26;995.18;;;21.29;49.12
29815;BME280;16708;50.426;7.664;2022-07-18T07:18:20;995.09;;;21.41;48.39
29815;BME280;16708;50.426;7.664;2022-07-18T07:23:15;995.02;;;21.69;45.26
29815;BME280;16708;50.426;7.664;2022-07-18T07:28:09;995.07;;;22.03;44.58
29815;BME280;16708;50.426;7.664;2022-07-18T07:33:04;995.01;;;22.37;43.86
29815;BME280;16708;50.426;7.664;2022-07-18T07:37:59;995.01;;;22.84;45.93
29815;BME280;16708;50.426;7.664;2022-07-18T07:42:54;994.99;;;22.95;43.98
29815;BME280;16708;50.426;7.664;2022-07-18T07:47:49;994.97;;;23.05;45.80
29815;BME280;16708;50.426;7.664;2022-07-18T07:52:43;994.96;;;23.44;42.67
29815;BME280;16708;50.426;7.664;2022-07-18T07:57:37;994.88;;;23.77;43.67
29815;BME280;16708;50.426;7.664;2022-07-18T08:02:32;994.90;;;23.90;42.37
29815;BME280;16708;50.426;7.664;2022-07-18T08:07:26;994.93;;;23.81;40.90
29815;BME280;16708;50.426;7.664;2022-07-18T08:12:21;994.88;;;24.47;41.65
29815;BME280;16708;50.426;7.664;2022-07-18T08:17:16;994.83;;;24.61;36.83
29815;BME280;16708;50.426;7.664;2022-07-18T08:22:11;994.76;;;24.86;35.98
29815;BME280;16708;50.426;7.664;2022-07-18T08:27:05;994.77;;;25.24;35.84
29815;BME280;16708;50.426;7.664;2022-07-18T08:32:00;994.81;;;25.47;34.47
29815;BME280;16708;50.426;7.664;2022-07-18T08:36:54;994.79;;;25.64;38.89
29815;BME280;16708;50.426;7.664;2022-07-18T08:41:49;994.82;;;25.40;40.17
29815;BME280;16708;50.426;7.664;2022-07-18T08:46:44;994.81;;;25.52;38.93
29815;BME280;16708;50.426;7.664;2022-07-18T08:51:38;994.78;;;25.67;38.77
29815;BME280;16708;50.426;7.664;2022-07-18T08:56:33;994.72;;;25.96;37.52
29815;BME280;16708;50.426;7.664;2022-07-18T09:06:26;994.84;;;26.39;36.98
29815;BME280;16708;50.426;7.664;2022-07-18T09:11:17;994.81;;;26.99;36.32
29815;BME280;16708;50.426;7.664;2022-07-18T09:16:12;994.85;;;26.95;34.94
29815;BME280;16708;50.426;7.664;2022-07-18T09:21:06;994.77;;;27.08;33.79
29815;BME280;16708;50.426;7.664;2022-07-18T09:30:55;994.76;;;28.49;26.84
29815;BME280;16708;50.426;7.664;2022-07-18T09:40:43;994.67;;;29.01;26.04
29815;BME280;16708;50.426;7.664;2022-07-18T09:45:38;994.74;;;29.33;24.80
29815;BME280;16708;50.426;7.664;2022-07-18T09:50:33;994.65;;;29.57;21.66
29815;BME280;16708;50.426;7.664;2022-07-18T09:55:28;994.56;;;29.89;23.51
29815;BME280;16708;50.426;7.664;2022-07-18T10:00:23;994.61;;;31.00;22.26
29815;BME280;16708;50.426;7.664;2022-07-18T10:05:19;994.58;;;31.82;20.67
29815;BME280;16708;50.426;7.664;2022-07-18T10:10:16;994.57;;;33.59;19.41
29815;BME280;16708;50.426;7.664;2022-07-18T10:15:13;994.60;;;34.63;18.83
29815;BME280;16708;50.426;7.664;2022-07-18T10:20:09;994.51;;;34.04;17.46
29815;BME280;16708;50.426;7.664;2022-07-18T10:30:00;994.45;;;33.22;19.00
29815;BME280;16708;50.426;7.664;2022-07-18T10:34:55;994.42;;;36.15;17.23
29815;BME280;16708;50.426;7.664;2022-07-18T10:49:42;994.40;;;35.14;16.17
29815;BME280;16708;50.426;7.664;2022-07-18T10:59:31;994.40;;;36.01;15.90
29815;BME280;16708;50.426;7.664;2022-07-18T11:04:26;994.38;;;36.62;14.66
29815;BME280;16708;50.426;7.664;2022-07-18T11:09:21;994.33;;;35.54;15.50
29815;BME280;16708;50.426;7.664;2022-07-18T11:14:16;994.35;;;35.79;15.18
29815;BME280;16708;50.426;7.664;2022-07-18T11:24:07;994.24;;;37.10;15.24
29815;BME280;16708;50.426;7.664;2022-07-18T11:29:02;994.21;;;37.13;14.88
29815;BME280;16708;50.426;7.664;2022-07-18T11:33:57;994.10;;;36.43;15.01
29815;BME280;16708;50.426;7.664;2022-07-18T11:38:51;994.06;;;38.14;13.59
29815;BME280;16708;50.426;7.664;2022-07-18T11:43:47;994.00;;;38.09;13.67
29815;BME280;16708;50.426;7.664;2022-07-18T11:48:42;993.94;;;38.01;14.52
29815;BME280;16708;50.426;7.664;2022-07-18T11:53:37;994.06;;;37.46;14.83
29815;BME280;16708;50.426;7.664;2022-07-18T12:03:26;993.91;;;39.32;12.83
29815;BME280;16708;50.426;7.664;2022-07-18T12:13:17;993.90;;;38.49;13.72
29815;BME280;16708;50.426;7.664;2022-07-18T12:23:06;993.85;;;39.11;13.98
29815;BME280;16708;50.426;7.664;2022-07-18T12:28:01;993.72;;;38.30;14.18
29815;BME280;16708;50.426;7.664;2022-07-18T12:32:56;993.76;;;39.23;13.86
29815;BME280;16708;50.426;7.664;2022-07-18T12:37:51;993.82;;;40.43;12.14
29815;BME280;16708;50.426;7.664;2022-07-18T12:42:47;993.67;;;39.63;12.79
29815;BME280;16708;50.426;7.664;2022-07-18T12:47:41;993.56;;;38.73;12.71
29815;BME280;16708;50.426;7.664;2022-07-18T12:52:36;993.47;;;39.36;13.50
29815;BME280;16708;50.426;7.664;2022-07-18T12:57:31;993.40;;;41.24;12.12
29815;BME280;16708;50.426;7.664;2022-07-18T13:02:26;993.40;;;39.26;13.07
29815;BME280;16708;50.426;7.664;2022-07-18T13:07:21;993.31;;;38.95;13.31
29815;BME280;16708;50.426;7.664;2022-07-18T13:12:16;993.29;;;40.36;11.50
29815;BME280;16708;50.426;7.664;2022-07-18T13:17:11;993.38;;;40.49;11.63
29815;BME280;16708;50.426;7.664;2022-07-18T13:22:06;993.32;;;42.11;11.66
29815;BME280;16708;50.426;7.664;2022-07-18T13:27:01;993.31;;;41.19;11.23
29815;BME280;16708;50.426;7.664;2022-07-18T13:31:56;993.21;;;40.65;11.74
29815;BME280;16708;50.426;7.664;2022-07-18T13:36:51;993.15;;;41.09;11.93
29815;BME280;16708;50.426;7.664;2022-07-18T13:41:46;993.09;;;42.24;10.39
29815;BME280;16708;50.426;7.664;2022-07-18T13:46:41;993.06;;;41.10;11.51
29815;BME280;16708;50.426;7.664;2022-07-18T13:51:36;993.06;;;43.02;11.52
29815;BME280;16708;50.426;7.664;2022-07-18T13:56:30;992.93;;;41.32;12.96
29815;BME280;16708;50.426;7.664;2022-07-18T14:01:26;992.90;;;43.39;10.59
29815;BME280;16708;50.426;7.664;2022-07-18T14:06:21;992.84;;;41.78;11.56
29815;BME280;16708;50.426;7.664;2022-07-18T14:11:16;992.88;;;42.73;11.16
29815;BME280;16708;50.426;7.664;2022-07-18T14:16:11;992.75;;;41.85;11.46
29815;BME280;16708;50.426;7.664;2022-07-18T14:21:06;992.68;;;37.68;13.86
29815;BME280;16708;50.426;7.664;2022-07-18T14:26:00;992.74;;;40.84;11.90
29815;BME280;16708;50.426;7.664;2022-07-18T14:30:55;992.66;;;42.47;10.47
29815;BME280;16708;50.426;7.664;2022-07-18T14:35:49;992.68;;;41.89;11.28
29815;BME280;16708;50.426;7.664;2022-07-18T14:40:43;992.58;;;41.88;10.73
29815;BME280;16708;50.426;7.664;2022-07-18T14:45:33;992.56;;;41.27;11.64
29815;BME280;16708;50.426;7.664;2022-07-18T14:50:28;992.52;;;41.10;12.21
29815;BME280;16708;50.426;7.664;2022-07-18T14:55:23;992.51;;;40.45;12.72
29815;BME280;16708;50.426;7.664;2022-07-18T15:00:18;992.51;;;42.67;10.69
29815;BME280;16708;50.426;7.664;2022-07-18T15:05:13;992.43;;;41.08;11.86
29815;BME280;16708;50.426;7.664;2022-07-18T15:10:08;992.43;;;43.20;10.52
29815;BME280;16708;50.426;7.664;2022-07-18T15:15:03;992.50;;;45.09;8.97
29815;BME280;16708;50.426;7.664;2022-07-18T15:19:58;992.35;;;41.73;11.44
29815;BME280;16708;50.426;7.664;2022-07-18T15:24:52;992.34;;;42.46;11.23
29815;BME280;16708;50.426;7.664;2022-07-18T15:29:46;992.29;;;41.80;11.07
29815;BME280;16708;50.426;7.664;2022-07-18T15:34:41;992.22;;;42.71;10.35
29815;BME280;16708;50.426;7.664;2022-07-18T15:39:36;992.13;;;42.07;10.45
29815;BME280;16708;50.426;7.664;2022-07-18T15:44:30;992.08;;;41.49;11.74
29815;BME280;16708;50.426;7.664;2022-07-18T15:49:25;992.10;;;42.70;11.32
29815;BME280;16708;50.426;7.664;2022-07-18T15:54:20;992.08;;;42.40;11.52
29815;BME280;16708;50.426;7.664;2022-07-18T15:59:16;991.95;;;40.99;12.43
29815;BME280;16708;50.426;7.664;2022-07-18T16:04:10;992.01;;;44.49;9.52
29815;BME280;16708;50.426;7.664;2022-07-18T16:09:06;991.95;;;43.55;10.49
29815;BME280;16708;50.426;7.664;2022-07-18T16:14:00;991.91;;;43.95;11.16
29815;BME280;16708;50.426;7.664;2022-07-18T16:18:55;991.73;;;40.63;13.01
29815;BME280;16708;50.426;7.664;2022-07-18T16:23:48;991.67;;;41.66;11.51
29815;BME280;16708;50.426;7.664;2022-07-18T16:28:43;991.61;;;42.36;11.56
29815;BME280;16708;50.426;7.664;2022-07-18T16:33:36;991.66;;;42.50;11.14
29815;BME280;16708;50.426;7.664;2022-07-18T16:38:31;991.65;;;42.11;11.65
29815;BME280;16708;50.426;7.664;2022-07-18T16:43:28;991.50;;;41.39;12.30
29815;BME280;16708;50.426;7.664;2022-07-18T16:48:21;991.32;;;40.79;12.42
29815;BME280;16708;50.426;7.664;2022-07-18T16:53:16;991.41;;;41.70;12.82
29815;BME280;16708;50.426;7.664;2022-07-18T16:58:11;991.39;;;43.52;10.88
29815;BME280;16708;50.426;7.664;2022-07-18T17:03:05;991.29;;;40.82;12.69
29815;BME280;16708;50.426;7.664;2022-07-18T17:08:00;991.33;;;42.49;11.62
29815;BME280;16708;50.426;7.664;2022-07-18T17:12:55;991.34;;;42.28;12.11
29815;BME280;16708;50.426;7.664;2022-07-18T17:17:49;991.28;;;40.61;12.48
29815;BME280;16708;50.426;7.664;2022-07-18T17:22:44;991.27;;;40.52;12.63
29815;BME280;16708;50.426;7.664;2022-07-18T17:27:39;991.17;;;39.96;12.98
29815;BME280;16708;50.426;7.664;2022-07-18T17:32:34;991.19;;;40.21;13.02
29815;BME280;16708;50.426;7.664;2022-07-18T17:37:28;991.10;;;40.29;12.83
29815;BME280;16708;50.426;7.664;2022-07-18T17:42:22;991.23;;;41.09;13.02
29815;BME280;16708;50.426;7.664;2022-07-18T17:47:19;991.15;;;40.10;13.08
29815;BME280;16708;50.426;7.664;2022-07-18T17:52:11;991.09;;;39.68;13.68
29815;BME280;16708;50.426;7.664;2022-07-18T17:57:08;991.15;;;40.58;12.96
29815;BME280;16708;50.426;7.664;2022-07-18T18:02:01;991.12;;;38.91;14.29
29815;BME280;16708;50.426;7.664;2022-07-18T18:06:56;991.08;;;40.33;13.07
29815;BME280;16708;50.426;7.664;2022-07-18T18:11:49;991.16;;;39.50;14.21
29815;BME280;16708;50.426;7.664;2022-07-18T18:16:44;991.14;;;39.59;14.33
29815;BME280;16708;50.426;7.664;2022-07-18T18:21:39;991.19;;;39.66;14.20
29815;BME280;16708;50.426;7.664;2022-07-18T18:26:33;991.10;;;38.95;15.00
29815;BME280;16708;50.426;7.664;2022-07-18T18:31:28;991.19;;;38.45;16.13
29815;BME280;16708;50.426;7.664;2022-07-18T18:36:22;991.23;;;38.27;16.80
29815;BME280;16708;50.426;7.664;2022-07-18T18:41:17;991.13;;;36.26;18.72
29815;BME280;16708;50.426;7.664;2022-07-18T18:46:11;991.09;;;36.42;18.60
29815;BME280;16708;50.426;7.664;2022-07-18T18:51:06;991.10;;;35.43;20.02
29815;BME280;16708;50.426;7.664;2022-07-18T18:56:00;991.08;;;33.53;23.28
29815;BME280;16708;50.426;7.664;2022-07-18T19:00:54;991.02;;;31.89;24.48
29815;BME280;16708;50.426;7.664;2022-07-18T19:05:48;990.98;;;30.67;26.99
29815;BME280;16708;50.426;7.664;2022-07-18T19:10:43;991.10;;;29.74;28.98
29815;BME280;16708;50.426;7.664;2022-07-18T19:15:37;990.97;;;28.77;31.65
29815;BME280;16708;50.426;7.664;2022-07-18T19:20:31;990.96;;;28.23;32.36
29815;BME280;16708;50.426;7.664;2022-07-18T19:25:29;990.95;;;27.73;34.33
29815;BME280;16708;50.426;7.664;2022-07-18T19:30:19;991.05;;;27.35;35.14
29815;BME280;16708;50.426;7.664;2022-07-18T19:35:14;990.97;;;27.02;35.39
29815;BME280;16708;50.426;7.664;2022-07-18T19:40:08;990.94;;;27.13;35.54
29815;BME280;16708;50.426;7.664;2022-07-18T19:45:02;991.00;;;27.15;35.14
29815;BME280;16708;50.426;7.664;2022-07-18T19:49:56;991.09;;;26.81;37.30
29815;BME280;16708;50.426;7.664;2022-07-18T19:54:50;991.20;;;26.34;37.43
29815;BME280;16708;50.426;7.664;2022-07-18T19:59:45;991.20;;;25.78;38.03
29815;BME280;16708;50.426;7.664;2022-07-18T20:04:39;991.23;;;25.64;39.05
29815;BME280;16708;50.426;7.664;2022-07-18T20:09:34;991.24;;;25.42;42.10
29815;BME280;16708;50.426;7.664;2022-07-18T20:14:29;991.25;;;25.26;41.12
29815;BME280;16708;50.426;7.664;2022-07-18T20:19:23;991.29;;;25.06;42.46
29815;BME280;16708;50.426;7.664;2022-07-18T20:24:18;991.35;;;25.03;43.36
29815;BME280;16708;50.426;7.664;2022-07-18T20:29:12;991.28;;;24.86;42.02
29815;BME280;16708;50.426;7.664;2022-07-18T20:34:07;991.25;;;24.74;40.36
29815;BME280;16708;50.426;7.664;2022-07-18T20:39:01;991.26;;;24.66;41.47
29815;BME280;16708;50.426;7.664;2022-07-18T20:43:56;991.28;;;24.56;40.68
29815;BME280;16708;50.426;7.664;2022-07-18T20:48:50;991.22;;;24.35;41.38
29815;BME280;16708;50.426;7.664;2022-07-18T20:53:45;991.31;;;24.06;42.47
29815;BME280;16708;50.426;7.664;2022-07-18T20:58:40;991.31;;;23.73;43.67
29815;BME280;16708;50.426;7.664;2022-07-18T21:03:34;991.31;;;23.52;43.45
29815;BME280;16708;50.426;7.664;2022-07-18T21:08:29;991.26;;;23.59;44.27
29815;BME280;16708;50.426;7.664;2022-07-18T21:13:24;991.26;;;23.49;42.64
29815;BME280;16708;50.426;7.664;2022-07-18T21:18:19;991.25;;;23.25;43.17
29815;BME280;16708;50.426;7.664;2022-07-18T21:23:13;991.31;;;23.11;42.96
29815;BME280;16708;50.426;7.664;2022-07-18T21:28:08;991.36;;;22.95;42.79
29815;BME280;16708;50.426;7.664;2022-07-18T21:33:02;991.32;;;22.66;45.81
29815;BME280;16708;50.426;7.664;2022-07-18T21:37:57;991.28;;;22.63;46.24
29815;BME280;16708;50.426;7.664;2022-07-18T21:42:51;991.28;;;22.43;45.90
29815;BME280;16708;50.426;7.664;2022-07-18T21:47:46;991.28;;;22.28;47.66
29815;BME280;16708;50.426;7.664;2022-07-18T21:52:41;991.33;;;22.04;49.59
29815;BME280;16708;50.426;7.664;2022-07-18T21:57:36;991.21;;;22.04;49.26
29815;BME280;16708;50.426;7.664;2022-07-18T22:02:31;991.28;;;21.98;48.29
29815;BME280;16708;50.426;7.664;2022-07-18T22:07:25;991.23;;;21.98;49.25
29815;BME280;16708;50.426;7.664;2022-07-18T22:12:20;991.25;;;21.86;47.73
29815;BME280;16708;50.426;7.664;2022-07-18T22:17:15;991.17;;;21.67;49.44
29815;BME280;16708;50.426;7.664;2022-07-18T22:22:10;991.19;;;21.48;49.32
29815;BME280;16708;50.426;7.664;2022-07-18T22:27:04;991.16;;;21.19;50.80
29815;BME280;16708;50.426;7.664;2022-07-18T22:31:59;991.23;;;21.17;47.94
29815;BME280;16708;50.426;7.664;2022-07-18T22:36:54;991.19;;;21.00;50.74
29815;BME280;16708;50.426;7.664;2022-07-18T22:41:48;991.21;;;20.93;48.99
29815;BME280;16708;50.426;7.664;2022-07-18T22:46:43;991.24;;;20.90;49.10
29815;BME280;16708;50.426;7.664;2022-07-18T22:51:38;991.29;;;20.85;51.01
29815;BME280;16708;50.426;7.664;2022-07-18T22:56:33;991.27;;;20.79;50.07
29815;BME280;16708;50.426;7.664;2022-07-18T23:01:28;991.17;;;20.69;49.94
29815;BME280;16708;50.426;7.664;2022-07-18T23:06:22;991.18;;;20.62;49.48
29815;BME280;16708;50.426;7.664;2022-07-18T23:11:17;991.23;;;20.50;50.02
29815;BME280;16708;50.426;7.664;2022-07-18T23:16:13;991.16;;;20.42;49.53
29815;BME280;16708;50.426;7.664;2022-07-18T23:21:06;991.17;;;20.37;49.03
29815;BME280;16708;50.426;7.664;2022-07-18T23:26:01;991.18;;;20.47;47.73
29815;BME280;16708;50.426;7.664;2022-07-18T23:30:56;991.23;;;20.26;49.07
29815;BME280;16708;50.426;7.664;2022-07-18T23:35:50;991.26;;;20.09;49.02
29815;BME280;16708;50.426;7.664;2022-07-18T23:40:45;991.26;;;20.02;49.93
29815;BME280;16708;50.426;7.664;2022-07-18T23:45:40;991.17;;;19.92;49.37
29815;BME280;16708;50.426;7.664;2022-07-18T23:50:33;991.07;;;19.86;50.78
29815;BME280;16708;50.426;7.664;2022-07-18T23:55:28;991.12;;;19.84;50.98
